Aviation Digital Data Service (ADDS)

Output produced by METARs form (2034 UTC 25 October 2014)
found at http://aviationweather.gov/adds/metars/
 
KFRG 251953Z 23009KT 10SM CLR 19/06 A2969 RMK AO2 SLP053 T01890056
KISP 251956Z 26012G17KT 10SM FEW250 19/06 A2967 RMK AO2 SLP047 T01890061
KISP 251931Z 2520/2618 25012G18KT P6SM FEW050 
     FM260000 25012KT P6SM SCT050 
     FM260900 28012G20KT P6SM SCT050 
     FM261500 30018G30KT P6SM SCT050
       
KJFK 251951Z 24013KT 10SM FEW260 20/06 A2969 RMK AO2 PRESFR SLP054 T02000061
KJFK 251931Z 2520/2624 23014G20KT P6SM SCT050 
     FM252300 26014KT P6SM BKN050 
     FM260900 29014G22KT P6SM SCT050 
     FM261500 30020G30KT P6SM SCT050 
     FM262200 29016G27KT P6SM FEW050
       
KBDR 251952Z 22012KT 10SM CLR 18/09 A2966 RMK AO2 SLP043 T01830094
KBDR 251931Z 2520/2618 25010G18KT P6SM SCT050 
     FM252300 25008KT P6SM BKN050 
     FM260900 29010G18KT P6SM SCT050 
     FM261500 30016G28KT P6SM SCT050